Time;durP1;ratioP1;P1;durP2;ratioP2;P2;SDS_P1;SDS_P2;PMS_P1;PMS_P2;Temp;Humidity;BMP_temperature;BMP_pressure;BME280_temperature;BME280_humidity;BME280_pressure;Samples;Min_cycle;Max_cycle;Signal;HPM_P1;HPM_P2
2023/11/13 00:01:23;;;;;;;15.32;10.68;;;;;;;7.21;100.00;99839.69;5055125;28;20060;-73
2023/11/13 00:03:50;;;;;;;15.00;10.68;;;;;;;7.28;100.00;99841.13;5054036;28;20060;-73
2023/11/13 00:06:19;;;;;;;14.23;10.13;;;;;;;7.24;100.00;99816.69;5033722;28;20049;-72
2023/11/13 00:08:47;;;;;;;13.85;9.73;;;;;;;7.28;100.00;99823.56;5023670;28;20127;-74
2023/11/13 00:11:17;;;;;;;13.48;9.23;;;;;;;7.31;100.00;99836.59;5046595;28;20052;-73
2023/11/13 00:13:46;;;;;;;13.70;9.73;;;;;;;7.29;100.00;99822.63;5053523;28;20049;-74
2023/11/13 00:16:19;;;;;;;14.93;9.43;;;;;;;7.32;100.00;99797.94;5050562;28;20092;-73
2023/11/13 00:18:50;;;;;;;11.50;8.15;;;;;;;7.29;100.00;99792.81;5077064;28;20040;-72
2023/11/13 00:21:19;;;;;;;12.80;8.88;;;;;;;7.24;100.00;99807.97;5063533;28;20046;-72
2023/11/13 00:23:48;;;;;;;13.10;9.60;;;;;;;7.21;100.00;99822.13;5054616;28;20134;-74
2023/11/13 00:26:19;;;;;;;11.38;8.48;;;;;;;7.25;100.00;99814.91;5047381;28;20053;-73
2023/11/13 00:28:53;;;;;;;12.48;8.48;;;;;;;7.20;100.00;99793.22;5049650;28;20044;-72
2023/11/13 00:31:22;;;;;;;10.88;8.05;;;;;;;7.28;100.00;99801.63;5048339;28;20045;-72
2023/11/13 00:33:50;;;;;;;10.15;8.15;;;;;;;7.31;100.00;99797.09;5038197;28;20064;-74
2023/11/13 00:36:18;;;;;;;9.82;6.72;;;;;;;7.28;100.00;99788.47;5048866;28;20045;-72
2023/11/13 00:38:46;;;;;;;10.57;7.10;;;;;;;7.34;100.00;99796.97;5048745;28;20048;-73
2023/11/13 00:41:14;;;;;;;12.68;7.15;;;;;;;7.29;100.00;99811.25;5054805;28;20041;-73
2023/11/13 00:43:44;;;;;;;10.95;6.90;;;;;;;7.29;100.00;99804.19;5053330;28;20444;-73
2023/11/13 00:46:14;;;;;;;8.50;6.15;;;;;;;7.29;100.00;99796.28;5054816;28;20033;-73
2023/11/13 00:48:44;;;;;;;8.00;5.97;;;;;;;7.31;100.00;99796.22;5040548;28;20721;-73
2023/11/13 00:51:13;;;;;;;6.07;4.82;;;;;;;7.31;100.00;99802.34;5049958;28;20053;-73
2023/11/13 00:53:42;;;;;;;8.88;5.10;;;;;;;7.26;100.00;99785.88;5068601;28;20055;-73
2023/11/13 00:56:10;;;;;;;5.85;4.32;;;;;;;7.38;100.00;99787.16;5043876;28;20098;-73
2023/11/13 00:58:38;;;;;;;5.30;4.40;;;;;;;7.36;100.00;99789.00;5045214;28;20053;-72
2023/11/13 01:01:10;;;;;;;4.97;3.70;;;;;;;7.36;100.00;99779.31;5034280;28;20051;-73
2023/11/13 01:03:39;;;;;;;5.07;3.53;;;;;;;7.34;100.00;99791.69;5048596;28;20513;-74
2023/11/13 01:06:08;;;;;;;3.45;3.05;;;;;;;7.24;100.00;99785.09;5029106;28;20091;-74
2023/11/13 01:08:37;;;;;;;3.67;3.30;;;;;;;7.30;100.00;99789.25;5059287;28;20124;-73
2023/11/13 01:11:05;;;;;;;3.75;3.10;;;;;;;7.31;100.00;99785.69;5045998;28;20037;-74
2023/11/13 01:13:34;;;;;;;3.85;3.00;;;;;;;7.29;100.00;99764.69;5049987;28;20069;-73
2023/11/13 01:16:05;;;;;;;4.50;2.50;;;;;;;7.30;100.00;99760.28;5051957;28;20036;-74
2023/11/13 01:18:37;;;;;;;4.38;2.70;;;;;;;7.31;100.00;99764.63;5028358;28;20040;-74
2023/11/13 01:21:06;;;;;;;3.85;2.80;;;;;;;7.28;100.00;99755.06;5051634;28;20048;-73
2023/11/13 01:23:34;;;;;;;3.83;3.05;;;;;;;7.32;100.00;99764.56;5048257;28;20049;-72
2023/11/13 01:26:03;;;;;;;3.70;3.20;;;;;;;7.30;100.00;99771.66;5067024;28;20509;-73
2023/11/13 01:28:32;;;;;;;7.18;3.10;;;;;;;7.22;100.00;99765.91;5038544;28;20141;-73
2023/11/13 01:31:02;;;;;;;5.88;3.38;;;;;;;7.14;100.00;99775.03;5050971;28;20045;-72
2023/11/13 01:33:32;;;;;;;4.43;3.03;;;;;;;7.11;100.00;99775.16;5051596;28;20111;-72
2023/11/13 01:36:02;;;;;;;6.43;3.67;;;;;;;7.08;100.00;99768.28;5042390;28;20579;-73
2023/11/13 01:38:33;;;;;;;4.68;3.78;;;;;;;7.18;100.00;99772.22;5038813;28;20049;-74
2023/11/13 01:41:02;;;;;;;4.00;3.33;;;;;;;7.20;100.00;99770.38;5044705;28;20053;-73
2023/11/13 01:43:32;;;;;;;6.72;4.07;;;;;;;7.23;100.00;99761.50;5047293;28;20045;-75
2023/11/13 01:46:02;;;;;;;5.97;4.05;;;;;;;7.25;100.00;99752.56;5067185;28;20076;-74
2023/11/13 01:48:30;;;;;;;6.53;4.10;;;;;;;7.29;100.00;99751.53;5054784;28;20056;-72
2023/11/13 01:50:59;;;;;;;5.80;4.18;;;;;;;7.33;100.00;99745.22;5048744;28;21050;-72
2023/11/13 01:53:30;;;;;;;4.50;3.83;;;;;;;7.29;100.00;99748.88;5059928;28;20570;-73
2023/11/13 01:55:59;;;;;;;6.13;4.40;;;;;;;7.31;100.00;99768.13;5051617;28;20052;-72
2023/11/13 01:58:27;;;;;;;5.07;4.00;;;;;;;7.24;100.00;99757.94;5022980;28;20382;-72
2023/11/13 02:00:57;;;;;;;5.15;4.20;;;;;;;7.13;100.00;99768.91;5054448;28;20040;-72
2023/11/13 02:03:31;;;;;;;6.53;4.22;;;;;;;7.03;100.00;99751.81;5047760;28;20049;-72
2023/11/13 02:06:02;;;;;;;5.28;4.03;;;;;;;7.08;100.00;99760.38;5049870;28;20052;-73
2023/11/13 02:08:31;;;;;;;5.63;4.43;;;;;;;7.09;100.00;99751.53;5057032;28;20053;-72
2023/11/13 02:11:03;;;;;;;6.68;4.63;;;;;;;7.01;100.00;99753.66;5069640;28;20045;-73
2023/11/13 02:13:32;;;;;;;6.40;4.70;;;;;;;6.92;100.00;99741.75;5030911;28;20168;-73
2023/11/13 02:16:00;;;;;;;5.95;4.47;;;;;;;6.92;100.00;99743.53;5052487;28;20121;-73
2023/11/13 02:18:35;;;;;;;7.77;4.90;;;;;;;6.92;100.00;99744.38;5041399;28;20196;-73
2023/11/13 02:21:06;;;;;;;5.72;4.70;;;;;;;6.96;100.00;99737.19;5046585;28;20041;-72
2023/11/13 02:23:36;;;;;;;7.68;4.90;;;;;;;7.05;100.00;99726.28;5049450;28;20049;-73
2023/11/13 02:26:17;;;;;;;6.53;5.18;;;;;;;7.06;100.00;99721.88;5044903;28;20059;-73
2023/11/13 02:28:47;;;;;;;6.65;5.35;;;;;;;7.06;100.00;99719.22;5043083;28;20045;-73
2023/11/13 02:31:17;;;;;;;7.10;5.85;;;;;;;7.07;100.00;99719.16;5041175;28;20069;-73
2023/11/13 02:33:47;;;;;;;7.60;5.75;;;;;;;7.02;100.00;99714.09;5051984;28;20075;-73
2023/11/13 02:36:16;;;;;;;8.63;6.32;;;;;;;6.87;100.00;99695.47;5044470;28;20478;-73
2023/11/13 02:38:47;;;;;;;11.65;6.30;;;;;;;6.90;100.00;99719.03;5043055;28;20056;-72
2023/11/13 02:41:21;;;;;;;;;;;;;;;6.93;100.00;99706.56;5040708;28;20045;-73
2023/11/13 02:43:51;;;;;;;8.30;6.07;;;;;;;6.93;100.00;99719.75;5052698;28;19921;-73
2023/11/13 02:46:20;;;;;;;12.85;6.63;;;;;;;6.92;100.00;99699.63;5050350;28;20041;-73
2023/11/13 02:48:50;;;;;;;8.85;6.80;;;;;;;6.97;100.00;99708.16;5020549;28;20047;-73
2023/11/13 02:51:18;;;;;;;9.45;6.95;;;;;;;6.94;100.00;99699.53;5050123;28;20464;-72
2023/11/13 02:53:48;;;;;;;8.80;6.60;;;;;;;7.03;100.00;99704.41;5049292;28;20559;-72
2023/11/13 02:56:16;;;;;;;10.35;7.00;;;;;;;6.99;100.00;99698.44;5045608;28;20046;-72
2023/11/13 02:58:44;;;;;;;8.75;7.03;;;;;;;7.03;100.00;99696.53;5040589;28;20396;-72
2023/11/13 03:01:12;;;;;;;11.43;6.95;;;;;;;7.06;100.00;99687.63;5048398;28;20069;-72
2023/11/13 03:03:43;;;;;;;8.95;6.50;;;;;;;7.03;100.00;99678.94;5050485;28;20104;-72
2023/11/13 03:06:14;;;;;;;;;;;;;;;7.05;100.00;99676.25;5051438;28;20071;-72
2023/11/13 03:08:43;;;;;;;8.43;6.78;;;;;;;6.95;100.00;99673.16;5039637;28;19946;-72
2023/11/13 03:11:14;;;;;;;9.85;7.25;;;;;;;6.96;100.00;99672.22;5047256;28;20111;-72
2023/11/13 03:13:43;;;;;;;8.57;6.72;;;;;;;6.95;100.00;99686.31;5049911;28;20508;-71
2023/11/13 03:16:12;;;;;;;13.65;7.47;;;;;;;7.03;100.00;99691.25;5036381;28;20125;-71
2023/11/13 03:18:41;;;;;;;8.32;7.07;;;;;;;7.02;100.00;99698.31;5043650;28;20032;-70
2023/11/13 03:21:12;;;;;;;10.85;7.78;;;;;;;7.00;100.00;99699.28;5053795;28;20116;-72
2023/11/13 03:23:43;;;;;;;12.20;8.02;;;;;;;6.88;100.00;99699.81;5045537;28;20128;-73
2023/11/13 03:26:11;;;;;;;12.88;8.60;;;;;;;6.72;100.00;99680.34;5042627;28;20139;-71
2023/11/13 03:28:40;;;;;;;10.68;7.90;;;;;;;6.83;100.00;99699.16;5043128;28;20045;-70
2023/11/13 03:31:10;;;;;;;11.13;7.68;;;;;;;6.83;100.00;99704.41;5054894;28;20045;-71
2023/11/13 03:33:41;;;;;;;10.05;7.63;;;;;;;6.85;100.00;99708.69;5068581;28;20058;-73
2023/11/13 03:36:09;;;;;;;9.63;7.95;;;;;;;6.84;100.00;99706.97;5051550;28;20041;-71
2023/11/13 03:38:37;;;;;;;9.75;7.25;;;;;;;6.85;100.00;99707.84;5033257;28;20075;-71
2023/11/13 03:41:08;;;;;;;10.98;8.05;;;;;;;6.85;100.00;99708.69;5046634;28;20045;-71
2023/11/13 03:43:36;;;;;;;11.27;7.70;;;;;;;6.85;100.00;99710.47;5056708;28;20133;-70
2023/11/13 03:46:07;;;;;;;10.32;7.82;;;;;;;6.89;100.00;99719.97;5047380;28;20064;-70
2023/11/13 03:48:34;;;;;;;9.75;7.35;;;;;;;6.87;100.00;99712.13;5040753;28;20139;-70
2023/11/13 03:51:03;;;;;;;12.80;8.02;;;;;;;6.93;100.00;99721.50;5047313;28;21113;-70
2023/11/13 03:53:32;;;;;;;10.05;7.13;;;;;;;6.95;100.00;99717.03;5042116;28;20384;-70
2023/11/13 03:56:02;;;;;;;;;;;;;;;6.92;100.00;99719.84;5039852;28;20041;-70
2023/11/13 03:58:30;;;;;;;9.35;6.90;;;;;;;6.85;100.00;99695.53;5031011;28;19929;-70
2023/11/13 04:00:58;;;;;;;9.18;6.93;;;;;;;6.84;100.00;99687.72;5047913;28;20056;-71
2023/11/13 04:03:28;;;;;;;7.53;6.15;;;;;;;6.86;100.00;99706.91;5030479;28;20059;-71
2023/11/13 04:05:58;;;;;;;9.60;6.70;;;;;;;6.82;100.00;99685.13;5060736;28;20062;-71
2023/11/13 04:08:28;;;;;;;8.48;6.82;;;;;;;6.82;100.00;99663.22;5044451;28;20436;-71
2023/11/13 04:10:56;;;;;;;8.52;6.05;;;;;;;6.84;100.00;99662.25;5055982;28;20049;-70
2023/11/13 04:13:28;;;;;;;11.15;6.70;;;;;;;6.86;100.00;99659.56;5049796;28;20044;-70
2023/11/13 04:15:57;;;;;;;7.85;5.72;;;;;;;6.89;100.00;99662.91;5017832;28;20059;-71
2023/11/13 04:18:28;;;;;;;7.65;6.07;;;;;;;6.88;100.00;99662.97;5042406;28;20131;-71
2023/11/13 04:20:57;;;;;;;6.90;5.60;;;;;;;6.87;100.00;99651.59;5049926;28;20045;-72
2023/11/13 04:23:27;;;;;;;6.70;5.63;;;;;;;6.84;100.00;99653.50;5048435;28;20141;-71
2023/11/13 04:25:56;;;;;;;7.00;5.78;;;;;;;6.74;100.00;99657.47;5044066;28;20488;-72
2023/11/13 04:28:28;;;;;;;10.00;6.68;;;;;;;6.65;100.00;99664.81;5042255;28;20560;-71
2023/11/13 04:30:58;;;;;;;8.95;6.82;;;;;;;6.60;100.00;99665.94;5050024;28;20051;-72
2023/11/13 04:33:27;;;;;;;9.88;7.22;;;;;;;6.46;100.00;99661.22;5066856;28;20454;-72
2023/11/13 04:36:01;;;;;;;9.23;6.60;;;;;;;6.43;100.00;99658.75;5051735;28;20048;-71
2023/11/13 04:38:29;;;;;;;12.65;7.15;;;;;;;6.50;100.00;99675.97;5056830;28;20076;-71
2023/11/13 04:40:58;;;;;;;9.27;6.88;;;;;;;6.49;100.00;99676.88;5065991;28;20041;-72
2023/11/13 04:43:27;;;;;;;10.18;7.93;;;;;;;6.39;100.00;99672.94;5052025;28;20037;-72
2023/11/13 04:46:04;;;;;;;11.38;8.90;;;;;;;6.40;100.00;99681.69;5052971;28;20120;-73
2023/11/13 04:48:35;;;;;;;10.52;7.50;;;;;;;6.43;100.00;99692.09;5043961;28;20686;-72
2023/11/13 04:51:07;;;;;;;13.55;8.88;;;;;;;6.45;100.00;99690.25;5050535;28;20049;-73
2023/11/13 04:53:38;;;;;;;10.57;8.10;;;;;;;6.55;100.00;99697.69;5055853;28;20047;-73
2023/11/13 04:56:10;;;;;;;10.45;7.32;;;;;;;6.53;100.00;99683.75;5052656;28;20053;-73
2023/11/13 04:58:38;;;;;;;10.80;7.50;;;;;;;6.61;100.00;99691.34;5040192;28;20395;-72
2023/11/13 05:01:14;;;;;;;9.60;6.90;;;;;;;6.65;100.00;99693.75;5051755;28;20059;-73
2023/11/13 05:03:43;;;;;;;9.00;7.10;;;;;;;6.67;100.00;99691.91;5047523;28;20051;-72
2023/11/13 05:06:16;;;;;;;9.45;7.53;;;;;;;6.69;100.00;99683.94;5052626;28;20200;-71
2023/11/13 05:08:45;;;;;;;9.98;7.28;;;;;;;6.69;100.00;99679.53;5040573;28;20821;-71
2023/11/13 05:11:24;;;;;;;11.25;7.63;;;;;;;6.62;100.00;99672.81;5047317;28;20504;-72
2023/11/13 05:13:53;;;;;;;10.52;7.30;;;;;;;6.59;100.00;99682.66;5043395;28;20036;-72
2023/11/13 05:16:23;;;;;;;10.33;7.50;;;;;;;6.50;100.00;99686.50;5051286;28;20054;-72
2023/11/13 05:18:54;;;;;;;9.52;6.88;;;;;;;6.45;100.00;99682.38;5046402;28;20547;-72
2023/11/13 05:21:25;;;;;;;11.07;6.55;;;;;;;6.37;100.00;99652.88;5063777;28;20057;-72
2023/11/13 05:23:53;;;;;;;8.80;6.55;;;;;;;6.41;100.00;99651.84;5063332;28;20132;-72
2023/11/13 05:26:22;;;;;;;9.88;7.28;;;;;;;6.45;100.00;99667.44;5059459;28;20572;-72
2023/11/13 05:28:50;;;;;;;9.38;6.93;;;;;;;6.45;100.00;99658.69;5035401;28;20752;-72
2023/11/13 05:31:20;;;;;;;8.27;6.38;;;;;;;6.43;100.00;99666.66;5049881;28;20041;-74
2023/11/13 05:33:52;;;;;;;11.13;7.95;;;;;;;6.40;100.00;99672.03;5028571;28;20038;-72
2023/11/13 05:36:20;;;;;;;10.63;7.38;;;;;;;6.38;100.00;99673.00;5053197;28;20494;-72
2023/11/13 05:38:50;;;;;;;11.00;7.68;;;;;;;6.36;100.00;99678.31;5068586;28;20434;-71
2023/11/13 05:41:19;;;;;;;10.82;7.72;;;;;;;6.37;100.00;99697.59;5048987;28;20045;-72
2023/11/13 05:43:48;;;;;;;11.57;7.50;;;;;;;6.36;100.00;99702.00;5045051;28;20113;-72
2023/11/13 05:46:17;;;;;;;12.32;8.10;;;;;;;6.37;100.00;99711.59;5054555;28;20045;-72
2023/11/13 05:48:47;;;;;;;10.57;7.70;;;;;;;6.37;100.00;99703.69;5043888;28;20067;-71
2023/11/13 05:51:15;;;;;;;13.77;9.30;;;;;;;6.37;100.00;99708.97;5046253;28;20402;-72
2023/11/13 05:53:45;;;;;;;;;;;;;;;6.38;100.00;99715.06;5050539;28;20064;-72
2023/11/13 05:56:16;;;;;;;12.00;8.27;;;;;;;6.35;100.00;99723.94;5055305;28;19924;-71
2023/11/13 05:58:44;;;;;;;12.90;8.25;;;;;;;6.34;100.00;99724.84;5032289;28;20114;-71
2023/11/13 06:01:18;;;;;;;13.13;8.60;;;;;;;6.36;100.00;99730.91;5046005;28;20053;-71
2023/11/13 06:03:47;;;;;;;12.18;7.97;;;;;;;6.38;100.00;99733.47;5048579;28;20345;-72
2023/11/13 06:06:16;;;;;;;13.48;8.68;;;;;;;6.37;100.00;99737.88;5033826;28;20076;-72
2023/11/13 06:08:45;;;;;;;13.27;8.63;;;;;;;6.40;100.00;99735.13;5049321;28;20068;-71
2023/11/13 06:11:22;;;;;;;13.68;8.70;;;;;;;6.44;100.00;99718.31;5042960;28;20053;-71
2023/11/13 06:13:50;;;;;;;13.77;9.15;;;;;;;6.45;100.00;99709.53;5044244;28;20038;-73
2023/11/13 06:16:20;;;;;;;15.43;10.13;;;;;;;6.52;100.00;99710.09;5066791;28;20501;-71
2023/11/13 06:18:53;;;;;;;14.50;9.82;;;;;;;6.53;100.00;99691.63;5047011;28;20044;-71
2023/11/13 06:21:22;;;;;;;14.95;9.85;;;;;;;6.55;100.00;99694.19;5043719;28;20482;-74
2023/11/13 06:23:50;;;;;;;14.75;10.07;;;;;;;6.55;100.00;99681.06;5046394;28;20051;-72
2023/11/13 06:26:20;;;;;;;13.15;9.75;;;;;;;6.56;100.00;99678.38;5043321;28;20054;-72
2023/11/13 06:28:48;;;;;;;13.35;9.40;;;;;;;6.72;100.00;99685.59;5041981;28;20501;-71
2023/11/13 06:31:23;;;;;;;13.60;9.55;;;;;;;6.75;100.00;99674.97;5047079;28;20049;-72
2023/11/13 06:33:55;;;;;;;13.52;9.57;;;;;;;6.79;100.00;99681.78;5044292;28;20083;-73
2023/11/13 06:36:23;;;;;;;13.65;9.35;;;;;;;6.73;100.00;99685.53;5045705;28;20070;-72
2023/11/13 06:38:51;;;;;;;17.63;9.75;;;;;;;6.82;100.00;99686.91;5047896;28;20047;-71
2023/11/13 06:41:21;;;;;;;13.50;9.50;;;;;;;6.80;100.00;99689.59;5043799;28;20064;-72
2023/11/13 06:43:49;;;;;;;17.65;10.07;;;;;;;6.84;100.00;99687.72;5058021;28;20049;-72
2023/11/13 06:46:20;;;;;;;14.73;9.68;;;;;;;6.86;100.00;99697.25;5051723;28;20525;-70
2023/11/13 06:48:49;;;;;;;14.95;9.98;;;;;;;6.90;100.00;99704.09;5046340;28;20530;-71
2023/11/13 06:51:19;;;;;;;15.15;10.13;;;;;;;6.89;100.00;99698.91;5038722;28;20040;-70
2023/11/13 06:53:48;;;;;;;18.25;10.98;;;;;;;6.81;100.00;99701.00;5047341;28;20113;-71
2023/11/13 06:56:18;;;;;;;15.77;9.48;;;;;;;6.84;100.00;99708.75;5044102;28;20041;-70
2023/11/13 06:58:49;;;;;;;18.05;11.23;;;;;;;6.89;100.00;99701.53;5040572;28;20171;-70
2023/11/13 07:01:17;;;;;;;17.42;10.73;;;;;;;6.90;100.00;99698.84;5039775;28;20061;-70
2023/11/13 07:03:45;;;;;;;20.10;12.60;;;;;;;6.93;100.00;99688.16;5042107;28;20112;-72
2023/11/13 07:06:13;;;;;;;23.15;12.63;;;;;;;6.90;100.00;99680.41;5046446;28;21359;-71
2023/11/13 07:08:42;;;;;;;21.30;13.60;;;;;;;6.91;100.00;99690.03;5042707;28;20049;-71
2023/11/13 07:11:11;;;;;;;19.95;12.82;;;;;;;6.84;100.00;99680.66;5029474;28;20048;-71
2023/11/13 07:13:39;;;;;;;20.95;13.55;;;;;;;6.85;100.00;99686.78;5042889;28;20037;-71
2023/11/13 07:16:12;;;;;;;23.45;14.10;;;;;;;6.84;100.00;99691.19;5041183;28;20060;-71
2023/11/13 07:18:42;;;;;;;23.55;13.57;;;;;;;6.75;100.00;99690.75;5041518;28;20053;-71
2023/11/13 07:21:11;;;;;;;22.88;13.43;;;;;;;6.75;100.00;99681.06;5039582;28;20060;-71
2023/11/13 07:23:39;;;;;;;20.25;12.48;;;;;;;6.82;100.00;99679.88;5058864;28;20082;-71
2023/11/13 07:26:11;;;;;;;24.38;13.75;;;;;;;6.89;100.00;99689.22;5044962;28;20048;-72
2023/11/13 07:28:43;;;;;;;21.83;12.40;;;;;;;6.88;100.00;99689.28;5045721;28;20037;-70
2023/11/13 07:31:12;;;;;;;23.48;12.60;;;;;;;6.82;100.00;99673.75;5039951;28;20045;-71
2023/11/13 07:33:42;;;;;;;21.73;11.68;;;;;;;6.81;100.00;99677.31;5027915;28;20040;-71
2023/11/13 07:36:12;;;;;;;22.73;12.57;;;;;;;6.82;100.00;99674.59;5040631;28;20040;-71
2023/11/13 07:38:42;;;;;;;22.27;12.48;;;;;;;6.90;100.00;99683.03;5056405;28;20464;-71
2023/11/13 07:41:12;;;;;;;24.60;11.35;;;;;;;6.95;100.00;99688.09;5031764;28;20045;-71
2023/11/13 07:43:42;;;;;;;25.42;13.07;;;;;;;6.96;100.00;99690.66;5047246;28;20041;-71
2023/11/13 07:46:17;;;;;;;24.42;12.48;;;;;;;6.90;100.00;99676.94;5044018;28;20053;-71
2023/11/13 07:48:48;;;;;;;22.63;12.48;;;;;;;6.98;100.00;99695.84;5034455;28;20041;-71
2023/11/13 07:51:18;;;;;;;23.95;12.50;;;;;;;6.92;100.00;99694.38;5034891;28;20049;-71
2023/11/13 07:53:48;;;;;;;26.42;12.90;;;;;;;6.96;100.00;99709.09;5028504;28;20049;-71
2023/11/13 07:56:17;;;;;;;25.17;13.35;;;;;;;6.93;100.00;99721.50;5053231;28;20056;-72
2023/11/13 07:58:45;;;;;;;26.13;14.00;;;;;;;6.96;100.00;99731.91;5062132;28;20114;-70
2023/11/13 08:01:14;;;;;;;32.67;14.05;;;;;;;6.95;100.00;99738.97;5051238;28;20040;-70
2023/11/13 08:03:47;;;;;;;29.13;14.70;;;;;;;6.94;100.00;99736.38;5047234;28;20048;-71
2023/11/13 08:06:16;;;;;;;26.50;13.18;;;;;;;6.95;100.00;99732.84;5052018;28;20049;-71
2023/11/13 08:08:45;;;;;;;26.92;14.52;;;;;;;6.92;100.00;99723.31;5048897;28;20052;-71
2023/11/13 08:11:14;;;;;;;27.52;13.98;;;;;;;7.01;100.00;99740.47;5054417;28;20469;-71
2023/11/13 08:13:42;;;;;;;26.95;13.77;;;;;;;7.05;100.00;99723.63;5048698;28;20061;-71
2023/11/13 08:16:14;;;;;;;27.77;14.48;;;;;;;7.11;100.00;99726.00;5048021;28;20053;-71
2023/11/13 08:18:42;;;;;;;28.98;14.52;;;;;;;7.13;100.00;99726.78;5052807;28;20088;-71
2023/11/13 08:21:13;;;;;;;29.98;14.50;;;;;;;7.13;100.00;99723.28;5043824;28;20158;-72
2023/11/13 08:23:43;;;;;;;27.00;13.60;;;;;;;7.11;100.00;99704.06;5049592;28;20052;-71
2023/11/13 08:26:13;;;;;;;29.38;13.55;;;;;;;7.21;100.00;99714.16;5060298;28;20054;-74
2023/11/13 08:28:44;;;;;;;25.80;13.35;;;;;;;7.26;100.00;99701.63;5048956;28;20107;-73
2023/11/13 08:31:15;;;;;;;25.40;13.23;;;;;;;7.30;100.00;99691.81;5040068;28;20033;-73
2023/11/13 08:33:49;;;;;;;26.38;13.73;;;;;;;7.32;100.00;99682.91;5032302;28;20048;-73
2023/11/13 08:36:22;;;;;;;25.00;13.45;;;;;;;7.28;100.00;99675.22;5054225;28;20391;-72
2023/11/13 08:38:52;;;;;;;27.55;13.60;;;;;;;7.26;100.00;99672.66;5046536;28;20051;-71
2023/11/13 08:41:28;;;;;;;30.25;13.73;;;;;;;7.34;100.00;99677.59;5043117;28;20041;-71
2023/11/13 08:43:58;;;;;;;23.33;11.95;;;;;;;7.34;100.00;99675.81;5049608;28;20128;-72
2023/11/13 08:46:27;;;;;;;25.42;13.23;;;;;;;7.34;100.00;99648.63;5051703;28;20052;-72
2023/11/13 08:48:56;;;;;;;23.98;11.85;;;;;;;7.47;100.00;99643.63;5048682;28;20086;-71
2023/11/13 08:51:28;;;;;;;22.80;11.73;;;;;;;7.57;100.00;99642.28;5056679;28;20548;-72
2023/11/13 08:53:59;;;;;;;21.02;11.35;;;;;;;7.60;100.00;99634.22;5056924;28;20044;-72
2023/11/13 08:56:31;;;;;;;20.55;11.30;;;;;;;7.64;100.00;99628.75;5056437;28;20738;-72
2023/11/13 08:59:00;;;;;;;19.77;11.02;;;;;;;7.64;100.00;99620.84;5048746;28;20049;-71
2023/11/13 09:01:30;;;;;;;24.40;12.38;;;;;;;7.66;100.00;99626.91;5042567;28;20044;-73
2023/11/13 09:04:01;;;;;;;20.92;11.52;;;;;;;7.62;100.00;99629.75;5060298;28;20051;-71
2023/11/13 09:06:31;;;;;;;21.63;11.43;;;;;;;7.62;100.00;99635.00;5053290;28;20045;-73
2023/11/13 09:09:01;;;;;;;22.63;11.40;;;;;;;7.54;100.00;99632.75;5032773;28;20052;-72
2023/11/13 09:11:31;;;;;;;23.67;12.20;;;;;;;7.60;100.00;99634.22;5042229;28;20140;-71
2023/11/13 09:14:02;;;;;;;25.55;11.98;;;;;;;7.58;100.00;99634.28;5052347;28;20053;-72
2023/11/13 09:16:31;;;;;;;21.92;11.48;;;;;;;7.51;100.00;99624.13;5052309;28;20041;-72
2023/11/13 09:19:00;;;;;;;23.67;11.97;;;;;;;7.54;100.00;99642.44;5041756;28;20486;-71
2023/11/13 09:21:29;;;;;;;24.10;12.15;;;;;;;7.53;100.00;99653.91;5046207;28;20473;-72
2023/11/13 09:23:59;;;;;;;23.58;11.65;;;;;;;7.53;100.00;99649.50;5040180;28;20045;-71
2023/11/13 09:26:38;;;;;;;22.45;11.05;;;;;;;7.55;100.00;99626.56;5048416;28;20122;-72
2023/11/13 09:29:09;;;;;;;24.70;12.65;;;;;;;7.58;100.00;99620.28;5050459;28;20048;-71
2023/11/13 09:31:41;;;;;;;21.50;11.10;;;;;;;7.66;100.00;99628.69;5047406;28;20057;-73
2023/11/13 09:34:09;;;;;;;;;;;;;;;7.69;100.00;99633.81;5047927;28;20048;-71
2023/11/13 09:36:40;;;;;;;32.28;14.05;;;;;;;7.63;100.00;99645.50;5031533;28;19924;-71
2023/11/13 09:39:08;;;;;;;27.02;13.63;;;;;;;7.65;100.00;99625.19;5033122;28;20052;-71
2023/11/13 09:41:46;;;;;;;26.08;12.90;;;;;;;7.71;100.00;99613.53;5056913;28;20147;-73
2023/11/13 09:44:18;;;;;;;23.95;11.40;;;;;;;7.78;100.00;99603.53;5050314;28;20072;-70
2023/11/13 09:46:51;;;;;;;25.52;13.20;;;;;;;7.86;100.00;99610.16;5052490;28;20136;-74
2023/11/13 09:49:28;;;;;;;25.08;12.57;;;;;;;7.61;100.00;99554.25;5066235;28;20099;-73
2023/11/13 09:52:06;;;;;;;21.92;11.82;;;;;;;7.92;100.00;99590.53;5040802;28;20044;-72
2023/11/13 09:54:35;;;;;;;28.48;13.68;;;;;;;7.97;100.00;99593.81;5047562;28;20047;-71
2023/11/13 09:57:05;;;;;;;22.40;11.85;;;;;;;7.99;100.00;99590.16;5042976;28;20049;-71
2023/11/13 09:59:37;;;;;;;27.20;12.57;;;;;;;8.02;100.00;99587.38;5045125;28;20147;-72
2023/11/13 10:02:12;;;;;;;22.38;11.80;;;;;;;8.05;100.00;99557.34;5037102;28;20378;-72
2023/11/13 10:04:41;;;;;;;23.58;12.50;;;;;;;8.10;100.00;99556.19;5047234;28;20045;-71
2023/11/13 10:07:12;;;;;;;28.25;13.43;;;;;;;8.13;100.00;99549.06;5033383;28;20082;-73
2023/11/13 10:09:40;;;;;;;24.80;12.02;;;;;;;8.14;100.00;99534.94;5046152;28;20418;-70
2023/11/13 10:12:10;;;;;;;24.00;12.20;;;;;;;8.19;100.00;99535.56;5039436;28;20069;-72
2023/11/13 10:15:02;;;;;;;28.48;13.30;;;;;;;8.23;100.00;99527.41;5049986;28;20051;-73
2023/11/13 10:17:46;;;;;;;29.87;14.60;;;;;;;8.30;100.00;99538.53;5059526;28;20459;-72
2023/11/13 10:20:17;;;;;;;26.52;13.20;;;;;;;8.31;100.00;99534.94;5048479;28;20475;-71
2023/11/13 10:22:57;;;;;;;34.28;14.68;;;;;;;8.36;100.00;99540.84;5037765;28;20041;-72
2023/11/13 10:25:26;;;;;;;35.35;14.98;;;;;;;8.41;100.00;99546.75;5052614;28;20056;-72
2023/11/13 10:28:02;;;;;;;32.83;15.05;;;;;;;8.42;100.00;99548.47;5047460;28;20128;-73
2023/11/13 10:30:30;;;;;;;36.80;15.80;;;;;;;8.38;100.00;99524.03;5056503;28;20474;-71
2023/11/13 10:33:17;;;;;;;32.67;15.50;;;;;;;8.40;100.00;99518.66;5038019;28;20049;-72
2023/11/13 10:35:48;;;;;;;34.05;16.33;;;;;;;8.37;100.00;99517.03;5046834;28;20498;-71
2023/11/13 10:38:17;;;;;;;;;;;;;;;8.36;100.00;99511.84;5058351;28;20052;-70
2023/11/13 10:40:55;;;;;;;35.65;14.50;;;;;;;8.31;100.00;99504.16;5045918;28;19921;-71
2023/11/13 10:43:33;;;;;;;31.88;16.10;;;;;;;8.26;100.00;99497.41;5042329;28;20116;-72
2023/11/13 10:46:04;;;;;;;34.95;15.68;;;;;;;8.22;100.00;99507.25;5051137;28;20037;-71
2023/11/13 10:48:41;;;;;;;35.65;16.55;;;;;;;8.20;100.00;99492.44;5040783;28;20504;-71
2023/11/13 10:51:13;;;;;;;29.35;14.27;;;;;;;8.18;100.00;99487.25;5039508;28;21187;-72
2023/11/13 10:53:46;;;;;;;33.70;15.43;;;;;;;8.13;100.00;99473.44;5046874;28;20124;-72
2023/11/13 10:56:30;;;;;;;26.77;13.32;;;;;;;8.12;100.00;99471.75;5046231;28;20049;-72
2023/11/13 10:58:59;;;;;;;29.10;14.32;;;;;;;8.13;100.00;99462.91;5048250;28;20132;-70
2023/11/13 11:01:29;;;;;;;28.73;14.30;;;;;;;8.09;100.00;99456.94;5039074;28;20080;-72
2023/11/13 11:04:04;;;;;;;;;;;;;;;8.09;100.00;99456.06;5044597;28;20037;-71
2023/11/13 11:06:37;;;;;;;30.75;14.52;;;;;;;8.08;100.00;99447.31;5046585;28;20018;-71
2023/11/13 11:09:12;;;;;;;29.15;13.75;;;;;;;8.02;100.00;99423.91;5044044;28;20041;-72
2023/11/13 11:11:42;;;;;;;30.10;15.07;;;;;;;8.08;100.00;99420.94;5040806;28;20048;-71
2023/11/13 11:14:18;;;;;;;33.63;15.52;;;;;;;8.13;100.00;99404.88;5009163;28;20049;-71
2023/11/13 11:16:51;;;;;;;27.52;14.23;;;;;;;8.14;100.00;99401.31;5028141;28;20053;-71
2023/11/13 11:19:29;;;;;;;27.70;13.90;;;;;;;8.16;100.00;99388.91;5048488;28;20041;-71
2023/11/13 11:22:06;;;;;;;27.85;13.48;;;;;;;8.18;100.00;99386.19;5046581;28;20049;-71
2023/11/13 11:25:04;;;;;;;31.50;14.38;;;;;;;8.21;100.00;99375.47;5046650;28;20336;-71
2023/11/13 11:27:37;;;;;;;29.23;13.90;;;;;;;8.20;100.00;99373.75;5062333;28;20037;-72
2023/11/13 11:30:31;;;;;;;37.53;14.82;;;;;;;8.25;100.00;99382.28;5051621;28;20049;-70
2023/11/13 11:33:01;;;;;;;34.80;14.85;;;;;;;8.27;100.00;99375.16;5033845;28;20491;-71
2023/11/13 11:35:41;;;;;;;30.15;14.13;;;;;;;8.27;100.00;99365.44;5049857;28;20146;-71
2023/11/13 11:38:18;;;;;;;45.92;19.52;;;;;;;8.33;100.00;99362.53;5055619;28;20060;-72
2023/11/13 11:40:48;;;;;;;36.17;16.63;;;;;;;8.36;100.00;99357.06;5047111;28;20417;-71
2023/11/13 11:43:18;;;;;;;35.80;16.25;;;;;;;8.40;100.00;99355.09;5023769;28;20048;-72